sensor_id;sensor_type;location;lat;lon;timestamp;temperature;humidity
1205;DHT22;592;48.764;9.174;2023-03-12T00:02:18;0.30;99.90
1205;DHT22;592;48.764;9.174;2023-03-12T00:04:45;0.30;99.90
1205;DHT22;592;48.764;9.174;2023-03-12T00:07:12;0.40;99.90
1205;DHT22;592;48.764;9.174;2023-03-12T00:09:39;0.30;99.90
1205;DHT22;592;48.764;9.174;2023-03-12T00:12:06;0.30;99.90
1205;DHT22;592;48.764;9.174;2023-03-12T00:14:33;0.30;99.90
1205;DHT22;592;48.764;9.174;2023-03-12T00:17:00;0.30;99.90
1205;DHT22;592;48.764;9.174;2023-03-12T00:19:28;0.30;99.90
1205;DHT22;592;48.764;9.174;2023-03-12T00:21:54;0.30;99.90
1205;DHT22;592;48.764;9.174;2023-03-12T00:24:21;0.40;99.90
1205;DHT22;592;48.764;9.174;2023-03-12T00:26:48;0.40;99.90
1205;DHT22;592;48.764;9.174;2023-03-12T00:29:14;0.30;99.90
1205;DHT22;592;48.764;9.174;2023-03-12T00:31:41;0.30;99.90
1205;DHT22;592;48.764;9.174;2023-03-12T00:34:08;0.20;99.90
1205;DHT22;592;48.764;9.174;2023-03-12T00:36:37;0.10;99.90
1205;DHT22;592;48.764;9.174;2023-03-12T00:39:05;0.20;99.90
1205;DHT22;592;48.764;9.174;2023-03-12T00:41:31;0.20;99.90
1205;DHT22;592;48.764;9.174;2023-03-12T00:43:58;0.30;99.90
1205;DHT22;592;48.764;9.174;2023-03-12T00:46:25;0.10;99.90
1205;DHT22;592;48.764;9.174;2023-03-12T00:48:52;0.10;99.90
1205;DHT22;592;48.764;9.174;2023-03-12T00:51:19;0.20;99.90
1205;DHT22;592;48.764;9.174;2023-03-12T00:53:47;0.20;99.90
1205;DHT22;592;48.764;9.174;2023-03-12T00:56:14;0.10;99.90
1205;DHT22;592;48.764;9.174;2023-03-12T00:58:41;-0.10;99.90
1205;DHT22;592;48.764;9.174;2023-03-12T01:01:08;0.00;99.90
1205;DHT22;592;48.764;9.174;2023-03-12T01:03:35;0.10;99.90
1205;DHT22;592;48.764;9.174;2023-03-12T01:06:02;0.10;99.90
1205;DHT22;592;48.764;9.174;2023-03-12T01:08:29;0.20;99.90
1205;DHT22;592;48.764;9.174;2023-03-12T01:10:58;0.20;99.90
1205;DHT22;592;48.764;9.174;2023-03-12T01:13:25;0.30;99.90
1205;DHT22;592;48.764;9.174;2023-03-12T01:15:52;0.20;99.90
1205;DHT22;592;48.764;9.174;2023-03-12T01:18:18;0.20;99.90
1205;DHT22;592;48.764;9.174;2023-03-12T01:20:45;0.30;99.90
1205;DHT22;592;48.764;9.174;2023-03-12T01:23:12;0.30;99.90
1205;DHT22;592;48.764;9.174;2023-03-12T01:25:40;0.30;99.90
1205;DHT22;592;48.764;9.174;2023-03-12T01:28:08;0.30;99.90
1205;DHT22;592;48.764;9.174;2023-03-12T01:30:35;0.40;99.90
1205;DHT22;592;48.764;9.174;2023-03-12T01:33:02;0.40;99.90
1205;DHT22;592;48.764;9.174;2023-03-12T01:35:28;0.40;99.90
1205;DHT22;592;48.764;9.174;2023-03-12T01:37:55;0.50;99.90
1205;DHT22;592;48.764;9.174;2023-03-12T01:40:22;0.50;99.90
1205;DHT22;592;48.764;9.174;2023-03-12T01:42:52;0.40;99.90
1205;DHT22;592;48.764;9.174;2023-03-12T01:46:00;0.50;99.90
1205;DHT22;592;48.764;9.174;2023-03-12T01:48:31;0.50;99.90
1205;DHT22;592;48.764;9.174;2023-03-12T01:51:00;0.40;99.90
1205;DHT22;592;48.764;9.174;2023-03-12T01:53:28;0.50;99.90
1205;DHT22;592;48.764;9.174;2023-03-12T01:55:56;0.60;99.90
1205;DHT22;592;48.764;9.174;2023-03-12T01:58:23;0.60;99.90
1205;DHT22;592;48.764;9.174;2023-03-12T02:00:52;0.70;99.90
1205;DHT22;592;48.764;9.174;2023-03-12T02:03:20;0.70;99.90
1205;DHT22;592;48.764;9.174;2023-03-12T02:05:51;0.80;99.90
1205;DHT22;592;48.764;9.174;2023-03-12T02:08:19;0.70;99.90
1205;DHT22;592;48.764;9.174;2023-03-12T02:10:48;0.60;99.90
1205;DHT22;592;48.764;9.174;2023-03-12T02:13:15;0.70;99.90
1205;DHT22;592;48.764;9.174;2023-03-12T02:15:42;0.80;99.90
1205;DHT22;592;48.764;9.174;2023-03-12T02:18:12;0.80;99.90
1205;DHT22;592;48.764;9.174;2023-03-12T02:20:48;0.80;99.90
1205;DHT22;592;48.764;9.174;2023-03-12T02:23:20;0.90;99.90
1205;DHT22;592;48.764;9.174;2023-03-12T02:25:51;0.90;99.90
1205;DHT22;592;48.764;9.174;2023-03-12T02:28:20;0.90;99.90
1205;DHT22;592;48.764;9.174;2023-03-12T02:30:51;0.90;99.90
1205;DHT22;592;48.764;9.174;2023-03-12T02:33:19;0.80;99.90
1205;DHT22;592;48.764;9.174;2023-03-12T02:35:47;0.90;99.90
1205;DHT22;592;48.764;9.174;2023-03-12T02:38:32;0.90;99.90
1205;DHT22;592;48.764;9.174;2023-03-12T02:41:02;0.80;99.90
1205;DHT22;592;48.764;9.174;2023-03-12T02:43:30;0.80;99.90
1205;DHT22;592;48.764;9.174;2023-03-12T02:45:57;0.90;99.90
1205;DHT22;592;48.764;9.174;2023-03-12T02:48:24;0.90;99.90
1205;DHT22;592;48.764;9.174;2023-03-12T02:50:50;0.90;99.90
1205;DHT22;592;48.764;9.174;2023-03-12T02:53:17;0.90;99.90
1205;DHT22;592;48.764;9.174;2023-03-12T02:55:43;1.00;99.90
1205;DHT22;592;48.764;9.174;2023-03-12T02:58:11;0.90;99.90
1205;DHT22;592;48.764;9.174;2023-03-12T03:00:38;0.90;99.90
1205;DHT22;592;48.764;9.174;2023-03-12T03:03:05;0.80;99.90
1205;DHT22;592;48.764;9.174;2023-03-12T03:05:32;0.90;99.90
1205;DHT22;592;48.764;9.174;2023-03-12T03:08:01;0.80;99.90
1205;DHT22;592;48.764;9.174;2023-03-12T03:10:28;0.80;99.90
1205;DHT22;592;48.764;9.174;2023-03-12T03:12:55;0.80;99.90
1205;DHT22;592;48.764;9.174;2023-03-12T03:15:23;0.80;99.90
1205;DHT22;592;48.764;9.174;2023-03-12T03:17:50;0.80;99.90
1205;DHT22;592;48.764;9.174;2023-03-12T03:20:17;0.90;99.90
1205;DHT22;592;48.764;9.174;2023-03-12T03:22:44;0.90;99.90
1205;DHT22;592;48.764;9.174;2023-03-12T03:25:11;1.00;99.90
1205;DHT22;592;48.764;9.174;2023-03-12T03:27:38;1.00;99.90
1205;DHT22;592;48.764;9.174;2023-03-12T03:30:06;1.00;99.90
1205;DHT22;592;48.764;9.174;2023-03-12T03:32:34;1.10;99.90
1205;DHT22;592;48.764;9.174;2023-03-12T03:35:01;1.10;99.90
1205;DHT22;592;48.764;9.174;2023-03-12T03:37:27;1.10;99.90
1205;DHT22;592;48.764;9.174;2023-03-12T03:39:54;1.20;99.90
1205;DHT22;592;48.764;9.174;2023-03-12T03:42:21;1.10;99.90
1205;DHT22;592;48.764;9.174;2023-03-12T03:44:47;1.20;99.90
1205;DHT22;592;48.764;9.174;2023-03-12T03:47:14;1.20;99.90
1205;DHT22;592;48.764;9.174;2023-03-12T03:49:42;1.20;99.90
1205;DHT22;592;48.764;9.174;2023-03-12T03:52:09;1.20;99.90
1205;DHT22;592;48.764;9.174;2023-03-12T03:54:36;1.20;99.90
1205;DHT22;592;48.764;9.174;2023-03-12T03:57:03;1.10;99.90
1205;DHT22;592;48.764;9.174;2023-03-12T03:59:30;1.10;99.90
1205;DHT22;592;48.764;9.174;2023-03-12T04:01:56;1.20;99.90
1205;DHT22;592;48.764;9.174;2023-03-12T04:04:24;1.20;99.90
1205;DHT22;592;48.764;9.174;2023-03-12T04:06:52;1.30;99.90
1205;DHT22;592;48.764;9.174;2023-03-12T04:09:18;1.30;99.90
1205;DHT22;592;48.764;9.174;2023-03-12T04:11:45;1.30;99.90
1205;DHT22;592;48.764;9.174;2023-03-12T04:14:12;1.30;99.90
1205;DHT22;592;48.764;9.174;2023-03-12T04:16:38;1.40;99.90
1205;DHT22;592;48.764;9.174;2023-03-12T04:19:05;1.50;99.90
1205;DHT22;592;48.764;9.174;2023-03-12T04:21:32;1.50;99.90
1205;DHT22;592;48.764;9.174;2023-03-12T04:24:00;1.60;99.90
1205;DHT22;592;48.764;9.174;2023-03-12T04:26:26;1.60;99.90
1205;DHT22;592;48.764;9.174;2023-03-12T04:28:53;1.60;99.90
1205;DHT22;592;48.764;9.174;2023-03-12T04:31:20;1.40;99.90
1205;DHT22;592;48.764;9.174;2023-03-12T04:33:46;1.40;99.90
1205;DHT22;592;48.764;9.174;2023-03-12T04:36:13;1.50;99.90
1205;DHT22;592;48.764;9.174;2023-03-12T04:38:40;1.50;99.90
1205;DHT22;592;48.764;9.174;2023-03-12T04:41:10;1.40;99.90
1205;DHT22;592;48.764;9.174;2023-03-12T04:43:38;1.30;99.90
1205;DHT22;592;48.764;9.174;2023-03-12T04:46:05;1.40;99.90
1205;DHT22;592;48.764;9.174;2023-03-12T04:48:33;1.50;99.90
1205;DHT22;592;48.764;9.174;2023-03-12T04:51:00;1.60;99.90
1205;DHT22;592;48.764;9.174;2023-03-12T04:53:27;1.70;99.90
1205;DHT22;592;48.764;9.174;2023-03-12T04:55:54;1.70;99.90
1205;DHT22;592;48.764;9.174;2023-03-12T04:58:22;1.80;99.90
1205;DHT22;592;48.764;9.174;2023-03-12T05:00:49;1.80;99.90
1205;DHT22;592;48.764;9.174;2023-03-12T05:03:16;1.80;99.90
1205;DHT22;592;48.764;9.174;2023-03-12T05:05:43;1.90;99.90
1205;DHT22;592;48.764;9.174;2023-03-12T05:08:10;1.90;99.90
1205;DHT22;592;48.764;9.174;2023-03-12T05:10:37;2.00;99.90
1205;DHT22;592;48.764;9.174;2023-03-12T05:13:03;2.00;99.90
1205;DHT22;592;48.764;9.174;2023-03-12T05:15:31;2.00;99.90
1205;DHT22;592;48.764;9.174;2023-03-12T05:18:02;2.00;99.90
1205;DHT22;592;48.764;9.174;2023-03-12T05:20:28;2.10;99.90
1205;DHT22;592;48.764;9.174;2023-03-12T05:22:55;2.10;99.90
1205;DHT22;592;48.764;9.174;2023-03-12T05:25:22;2.10;99.90
1205;DHT22;592;48.764;9.174;2023-03-12T05:27:48;2.20;99.90
1205;DHT22;592;48.764;9.174;2023-03-12T05:30:15;2.00;99.90
1205;DHT22;592;48.764;9.174;2023-03-12T05:32:43;2.00;99.90
1205;DHT22;592;48.764;9.174;2023-03-12T05:35:10;1.90;99.90
1205;DHT22;592;48.764;9.174;2023-03-12T05:37:37;1.80;99.90
1205;DHT22;592;48.764;9.174;2023-03-12T05:40:08;1.70;99.90
1205;DHT22;592;48.764;9.174;2023-03-12T05:42:35;1.70;99.90
1205;DHT22;592;48.764;9.174;2023-03-12T05:45:02;1.60;99.90
1205;DHT22;592;48.764;9.174;2023-03-12T05:47:29;1.60;99.90
1205;DHT22;592;48.764;9.174;2023-03-12T05:49:57;1.60;99.90
1205;DHT22;592;48.764;9.174;2023-03-12T05:52:24;1.60;99.90
1205;DHT22;592;48.764;9.174;2023-03-12T05:54:51;1.60;99.90
1205;DHT22;592;48.764;9.174;2023-03-12T05:57:18;1.60;99.90
1205;DHT22;592;48.764;9.174;2023-03-12T05:59:44;1.70;99.90
1205;DHT22;592;48.764;9.174;2023-03-12T06:02:11;1.60;99.90
1205;DHT22;592;48.764;9.174;2023-03-12T06:04:38;1.60;99.90
1205;DHT22;592;48.764;9.174;2023-03-12T06:07:06;1.60;99.90
1205;DHT22;592;48.764;9.174;2023-03-12T06:09:32;1.60;99.90
1205;DHT22;592;48.764;9.174;2023-03-12T06:11:59;1.60;99.90
1205;DHT22;592;48.764;9.174;2023-03-12T06:14:26;1.60;99.90
1205;DHT22;592;48.764;9.174;2023-03-12T06:16:52;1.60;99.90
1205;DHT22;592;48.764;9.174;2023-03-12T06:19:19;1.70;99.90
1205;DHT22;592;48.764;9.174;2023-03-12T06:21:45;1.60;99.90
1205;DHT22;592;48.764;9.174;2023-03-12T06:24:13;1.70;99.90
1205;DHT22;592;48.764;9.174;2023-03-12T06:26:40;1.60;99.90
1205;DHT22;592;48.764;9.174;2023-03-12T06:29:07;1.50;99.90
1205;DHT22;592;48.764;9.174;2023-03-12T06:31:34;1.50;99.90
1205;DHT22;592;48.764;9.174;2023-03-12T06:34:01;1.40;99.90
1205;DHT22;592;48.764;9.174;2023-03-12T06:36:28;1.50;99.90
1205;DHT22;592;48.764;9.174;2023-03-12T06:38:54;1.50;99.90
1205;DHT22;592;48.764;9.174;2023-03-12T06:41:22;1.50;99.90
1205;DHT22;592;48.764;9.174;2023-03-12T06:43:49;1.60;99.90
1205;DHT22;592;48.764;9.174;2023-03-12T06:46:17;1.60;99.90
1205;DHT22;592;48.764;9.174;2023-03-12T06:48:46;1.70;99.90
1205;DHT22;592;48.764;9.174;2023-03-12T06:51:14;1.90;99.90
1205;DHT22;592;48.764;9.174;2023-03-12T06:53:42;2.10;99.90
1205;DHT22;592;48.764;9.174;2023-03-12T06:56:08;2.20;99.90
1205;DHT22;592;48.764;9.174;2023-03-12T06:58:37;2.30;99.90
1205;DHT22;592;48.764;9.174;2023-03-12T07:01:04;2.30;99.90
1205;DHT22;592;48.764;9.174;2023-03-12T07:03:31;2.40;99.90
1205;DHT22;592;48.764;9.174;2023-03-12T07:05:58;2.40;99.90
1205;DHT22;592;48.764;9.174;2023-03-12T07:08:26;2.50;99.90
1205;DHT22;592;48.764;9.174;2023-03-12T07:10:55;2.60;99.90
1205;DHT22;592;48.764;9.174;2023-03-12T07:13:22;2.60;99.90
1205;DHT22;592;48.764;9.174;2023-03-12T07:15:50;2.60;99.90
1205;DHT22;592;48.764;9.174;2023-03-12T07:18:16;2.60;99.90
1205;DHT22;592;48.764;9.174;2023-03-12T07:20:43;2.50;99.90
1205;DHT22;592;48.764;9.174;2023-03-12T07:23:12;2.30;99.90
1205;DHT22;592;48.764;9.174;2023-03-12T07:25:39;2.40;99.90
1205;DHT22;592;48.764;9.174;2023-03-12T07:28:07;2.30;99.90
1205;DHT22;592;48.764;9.174;2023-03-12T07:30:34;2.20;99.90
1205;DHT22;592;48.764;9.174;2023-03-12T07:33:03;2.30;99.90
1205;DHT22;592;48.764;9.174;2023-03-12T07:35:29;2.30;99.90
1205;DHT22;592;48.764;9.174;2023-03-12T07:37:57;2.40;99.90
1205;DHT22;592;48.764;9.174;2023-03-12T07:40:24;2.40;99.90
1205;DHT22;592;48.764;9.174;2023-03-12T07:42:51;2.50;99.90
1205;DHT22;592;48.764;9.174;2023-03-12T07:45:18;2.60;99.90
1205;DHT22;592;48.764;9.174;2023-03-12T07:47:45;2.80;99.90
1205;DHT22;592;48.764;9.174;2023-03-12T07:50:14;2.90;99.90
1205;DHT22;592;48.764;9.174;2023-03-12T07:52:41;3.10;99.90
1205;DHT22;592;48.764;9.174;2023-03-12T07:55:09;3.00;99.90
1205;DHT22;592;48.764;9.174;2023-03-12T07:57:36;3.00;99.90
1205;DHT22;592;48.764;9.174;2023-03-12T08:00:04;3.10;99.90
1205;DHT22;592;48.764;9.174;2023-03-12T08:02:33;3.30;99.90
1205;DHT22;592;48.764;9.174;2023-03-12T08:05:00;3.40;99.90
1205;DHT22;592;48.764;9.174;2023-03-12T08:07:29;3.60;99.90
1205;DHT22;592;48.764;9.174;2023-03-12T08:09:56;3.60;99.90
1205;DHT22;592;48.764;9.174;2023-03-12T08:12:23;3.60;99.90
1205;DHT22;592;48.764;9.174;2023-03-12T08:14:50;3.60;99.90
1205;DHT22;592;48.764;9.174;2023-03-12T08:17:16;3.60;99.90
1205;DHT22;592;48.764;9.174;2023-03-12T08:19:43;3.50;99.90
1205;DHT22;592;48.764;9.174;2023-03-12T08:22:10;3.60;99.90
1205;DHT22;592;48.764;9.174;2023-03-12T08:24:38;3.70;99.90
1205;DHT22;592;48.764;9.174;2023-03-12T08:27:05;3.70;99.90
1205;DHT22;592;48.764;9.174;2023-03-12T08:29:31;3.60;99.90
1205;DHT22;592;48.764;9.174;2023-03-12T08:31:59;3.40;99.90
1205;DHT22;592;48.764;9.174;2023-03-12T08:34:25;3.40;99.90
1205;DHT22;592;48.764;9.174;2023-03-12T08:36:52;3.60;99.90
1205;DHT22;592;48.764;9.174;2023-03-12T08:39:19;3.70;99.90
1205;DHT22;592;48.764;9.174;2023-03-12T08:41:47;3.70;99.90
1205;DHT22;592;48.764;9.174;2023-03-12T08:44:14;3.70;99.90
1205;DHT22;592;48.764;9.174;2023-03-12T08:46:41;3.80;99.90
1205;DHT22;592;48.764;9.174;2023-03-12T08:49:07;4.00;99.90
1205;DHT22;592;48.764;9.174;2023-03-12T08:51:34;4.10;99.90
1205;DHT22;592;48.764;9.174;2023-03-12T08:54:00;4.10;99.90
1205;DHT22;592;48.764;9.174;2023-03-12T08:56:27;4.20;99.90
1205;DHT22;592;48.764;9.174;2023-03-12T08:58:56;4.30;99.90
1205;DHT22;592;48.764;9.174;2023-03-12T09:01:23;4.40;99.90
1205;DHT22;592;48.764;9.174;2023-03-12T09:03:50;4.40;99.90
1205;DHT22;592;48.764;9.174;2023-03-12T09:06:19;4.50;99.90
1205;DHT22;592;48.764;9.174;2023-03-12T09:08:47;4.50;99.90
1205;DHT22;592;48.764;9.174;2023-03-12T09:11:16;4.60;99.90
1205;DHT22;592;48.764;9.174;2023-03-12T09:13:43;4.60;99.90
1205;DHT22;592;48.764;9.174;2023-03-12T09:16:11;4.70;99.90
1205;DHT22;592;48.764;9.174;2023-03-12T09:18:38;4.80;99.90
1205;DHT22;592;48.764;9.174;2023-03-12T09:21:04;5.00;99.90
1205;DHT22;592;48.764;9.174;2023-03-12T09:23:31;5.00;99.90
1205;DHT22;592;48.764;9.174;2023-03-12T09:25:58;5.20;99.90
1205;DHT22;592;48.764;9.174;2023-03-12T09:28:25;5.40;99.90
1205;DHT22;592;48.764;9.174;2023-03-12T09:30:51;5.60;99.90
1205;DHT22;592;48.764;9.174;2023-03-12T09:33:19;5.80;99.90
1205;DHT22;592;48.764;9.174;2023-03-12T09:35:55;6.00;99.90
1205;DHT22;592;48.764;9.174;2023-03-12T09:38:22;6.10;99.90
1205;DHT22;592;48.764;9.174;2023-03-12T09:40:48;6.00;99.90
1205;DHT22;592;48.764;9.174;2023-03-12T09:43:21;6.10;99.90
1205;DHT22;592;48.764;9.174;2023-03-12T09:45:50;6.30;99.90
1205;DHT22;592;48.764;9.174;2023-03-12T09:48:27;6.50;99.90
1205;DHT22;592;48.764;9.174;2023-03-12T09:50:55;6.50;99.90
1205;DHT22;592;48.764;9.174;2023-03-12T09:53:26;6.70;99.90
1205;DHT22;592;48.764;9.174;2023-03-12T09:55:56;6.80;99.90
1205;DHT22;592;48.764;9.174;2023-03-12T09:58:26;6.80;99.90
1205;DHT22;592;48.764;9.174;2023-03-12T10:00:58;7.00;99.90
1205;DHT22;592;48.764;9.174;2023-03-12T10:03:44;7.10;99.90
1205;DHT22;592;48.764;9.174;2023-03-12T10:06:15;7.30;99.90
1205;DHT22;592;48.764;9.174;2023-03-12T10:08:53;7.40;99.90
1205;DHT22;592;48.764;9.174;2023-03-12T10:11:31;7.60;99.90
1205;DHT22;592;48.764;9.174;2023-03-12T10:14:15;7.70;99.90
1205;DHT22;592;48.764;9.174;2023-03-12T10:16:56;7.90;99.90
1205;DHT22;592;48.764;9.174;2023-03-12T10:19:37;8.00;99.90
1205;DHT22;592;48.764;9.174;2023-03-12T10:22:14;8.20;99.90
1205;DHT22;592;48.764;9.174;2023-03-12T10:24:53;8.40;99.90
1205;DHT22;592;48.764;9.174;2023-03-12T10:27:26;8.50;99.90
1205;DHT22;592;48.764;9.174;2023-03-12T10:29:54;8.50;99.90
1205;DHT22;592;48.764;9.174;2023-03-12T10:32:24;8.60;99.90
1205;DHT22;592;48.764;9.174;2023-03-12T10:34:55;8.70;99.90
1205;DHT22;592;48.764;9.174;2023-03-12T10:37:25;8.80;99.90
1205;DHT22;592;48.764;9.174;2023-03-12T10:39:54;8.80;99.90
1205;DHT22;592;48.764;9.174;2023-03-12T10:42:24;8.90;99.90
1205;DHT22;592;48.764;9.174;2023-03-12T10:44:52;9.00;99.90
1205;DHT22;592;48.764;9.174;2023-03-12T10:47:30;8.90;99.90
1205;DHT22;592;48.764;9.174;2023-03-12T10:50:12;8.80;99.90
1205;DHT22;592;48.764;9.174;2023-03-12T10:52:39;9.00;99.90
1205;DHT22;592;48.764;9.174;2023-03-12T10:55:11;8.90;99.90
1205;DHT22;592;48.764;9.174;2023-03-12T10:57:39;8.80;99.90
1205;DHT22;592;48.764;9.174;2023-03-12T11:00:08;8.90;99.90
1205;DHT22;592;48.764;9.174;2023-03-12T11:02:39;8.80;99.90
1205;DHT22;592;48.764;9.174;2023-03-12T11:05:21;8.90;99.90
1205;DHT22;592;48.764;9.174;2023-03-12T11:07:49;8.90;99.90
1205;DHT22;592;48.764;9.174;2023-03-12T11:10:19;9.10;99.90
1205;DHT22;592;48.764;9.174;2023-03-12T11:12:59;9.40;99.90
1205;DHT22;592;48.764;9.174;2023-03-12T11:15:28;9.50;99.90
1205;DHT22;592;48.764;9.174;2023-03-12T11:18:21;9.50;99.90
1205;DHT22;592;48.764;9.174;2023-03-12T11:20:52;9.70;99.90
1205;DHT22;592;48.764;9.174;2023-03-12T11:23:23;9.60;99.90
1205;DHT22;592;48.764;9.174;2023-03-12T11:25:52;9.70;99.90
1205;DHT22;592;48.764;9.174;2023-03-12T11:28:22;9.90;99.90
1205;DHT22;592;48.764;9.174;2023-03-12T11:30:51;9.70;99.90
1205;DHT22;592;48.764;9.174;2023-03-12T11:33:18;9.90;99.90
1205;DHT22;592;48.764;9.174;2023-03-12T11:35:51;9.90;99.90
1205;DHT22;592;48.764;9.174;2023-03-12T11:38:28;10.20;99.90
1205;DHT22;592;48.764;9.174;2023-03-12T11:41:02;10.30;99.90
1205;DHT22;592;48.764;9.174;2023-03-12T11:43:46;10.30;99.90
1205;DHT22;592;48.764;9.174;2023-03-12T11:46:29;10.40;99.90
1205;DHT22;592;48.764;9.174;2023-03-12T11:49:04;10.60;99.90
1205;DHT22;592;48.764;9.174;2023-03-12T11:51:41;10.40;99.90
1205;DHT22;592;48.764;9.174;2023-03-12T11:54:29;10.30;99.90
1205;DHT22;592;48.764;9.174;2023-03-12T11:57:00;10.40;99.90
1205;DHT22;592;48.764;9.174;2023-03-12T11:59:38;10.30;99.90
1205;DHT22;592;48.764;9.174;2023-03-12T12:02:21;10.40;99.90
1205;DHT22;592;48.764;9.174;2023-03-12T12:05:17;10.40;99.90
1205;DHT22;592;48.764;9.174;2023-03-12T12:07:55;10.40;99.90
1205;DHT22;592;48.764;9.174;2023-03-12T12:10:27;10.70;99.90
1205;DHT22;592;48.764;9.174;2023-03-12T12:13:02;10.80;99.90
1205;DHT22;592;48.764;9.174;2023-03-12T12:15:37;10.80;99.90
1205;DHT22;592;48.764;9.174;2023-03-12T12:18:21;10.80;99.90
1205;DHT22;592;48.764;9.174;2023-03-12T12:20:57;10.60;99.90
1205;DHT22;592;48.764;9.174;2023-03-12T12:23:38;10.80;99.90
1205;DHT22;592;48.764;9.174;2023-03-12T12:26:08;10.80;99.90
1205;DHT22;592;48.764;9.174;2023-03-12T12:28:53;10.90;99.90
1205;DHT22;592;48.764;9.174;2023-03-12T12:31:34;10.80;99.90
1205;DHT22;592;48.764;9.174;2023-03-12T12:34:25;11.00;99.90
1205;DHT22;592;48.764;9.174;2023-03-12T12:37:00;10.90;99.90
1205;DHT22;592;48.764;9.174;2023-03-12T12:39:34;10.90;99.90
1205;DHT22;592;48.764;9.174;2023-03-12T12:42:05;11.10;99.90
1205;DHT22;592;48.764;9.174;2023-03-12T12:44:35;11.10;99.90
1205;DHT22;592;48.764;9.174;2023-03-12T12:47:06;10.80;99.90
1205;DHT22;592;48.764;9.174;2023-03-12T12:49:43;11.00;99.90
1205;DHT22;592;48.764;9.174;2023-03-12T12:52:12;11.10;99.90
1205;DHT22;592;48.764;9.174;2023-03-12T12:54:49;11.10;99.90
1205;DHT22;592;48.764;9.174;2023-03-12T12:57:20;11.30;99.90
1205;DHT22;592;48.764;9.174;2023-03-12T13:00:00;11.30;99.90
1205;DHT22;592;48.764;9.174;2023-03-12T13:02:32;11.10;99.90
1205;DHT22;592;48.764;9.174;2023-03-12T13:05:00;11.20;99.90
1205;DHT22;592;48.764;9.174;2023-03-12T13:07:33;11.00;99.90
1205;DHT22;592;48.764;9.174;2023-03-12T13:10:05;11.00;99.90
1205;DHT22;592;48.764;9.174;2023-03-12T13:12:35;10.90;99.90
1205;DHT22;592;48.764;9.174;2023-03-12T13:15:34;10.90;99.90
1205;DHT22;592;48.764;9.174;2023-03-12T13:18:07;10.90;99.90
1205;DHT22;592;48.764;9.174;2023-03-12T13:20:40;10.90;99.90
1205;DHT22;592;48.764;9.174;2023-03-12T13:23:31;11.20;99.90
1205;DHT22;592;48.764;9.174;2023-03-12T13:26:06;11.30;99.90
1205;DHT22;592;48.764;9.174;2023-03-12T13:28:37;11.50;99.90
1205;DHT22;592;48.764;9.174;2023-03-12T13:31:35;11.20;99.90
1205;DHT22;592;48.764;9.174;2023-03-12T13:37:19;11.10;99.90
1205;DHT22;592;48.764;9.174;2023-03-12T13:39:46;11.20;99.90
1205;DHT22;592;48.764;9.174;2023-03-12T13:42:35;11.40;99.90
1205;DHT22;592;48.764;9.174;2023-03-12T13:45:22;11.50;99.90
1205;DHT22;592;48.764;9.174;2023-03-12T13:47:54;11.40;99.90
1205;DHT22;592;48.764;9.174;2023-03-12T13:50:22;11.40;99.90
1205;DHT22;592;48.764;9.174;2023-03-12T13:52:58;11.50;99.90
1205;DHT22;592;48.764;9.174;2023-03-12T13:55:28;11.40;99.90
1205;DHT22;592;48.764;9.174;2023-03-12T13:58:00;11.50;99.90
1205;DHT22;592;48.764;9.174;2023-03-12T14:00:35;11.40;99.90
1205;DHT22;592;48.764;9.174;2023-03-12T14:03:05;11.60;99.90
1205;DHT22;592;48.764;9.174;2023-03-12T14:05:44;11.70;99.90
1205;DHT22;592;48.764;9.174;2023-03-12T14:08:41;11.70;99.90
1205;DHT22;592;48.764;9.174;2023-03-12T14:11:21;11.80;99.90
1205;DHT22;592;48.764;9.174;2023-03-12T14:14:10;11.60;99.90
1205;DHT22;592;48.764;9.174;2023-03-12T14:16:45;11.50;99.90
1205;DHT22;592;48.764;9.174;2023-03-12T14:19:15;11.40;99.90
1205;DHT22;592;48.764;9.174;2023-03-12T14:21:46;11.50;99.90
1205;DHT22;592;48.764;9.174;2023-03-12T14:24:21;11.50;99.90
1205;DHT22;592;48.764;9.174;2023-03-12T14:26:49;11.60;99.90
1205;DHT22;592;48.764;9.174;2023-03-12T14:29:22;11.70;99.90
1205;DHT22;592;48.764;9.174;2023-03-12T14:31:51;11.80;99.90
1205;DHT22;592;48.764;9.174;2023-03-12T14:34:21;11.90;99.90
1205;DHT22;592;48.764;9.174;2023-03-12T14:36:56;11.90;99.90
1205;DHT22;592;48.764;9.174;2023-03-12T14:39:27;11.90;99.90
1205;DHT22;592;48.764;9.174;2023-03-12T14:41:59;11.80;99.90
1205;DHT22;592;48.764;9.174;2023-03-12T14:44:32;11.60;99.90
1205;DHT22;592;48.764;9.174;2023-03-12T14:47:01;11.90;99.90
1205;DHT22;592;48.764;9.174;2023-03-12T14:49:29;12.10;99.90
1205;DHT22;592;48.764;9.174;2023-03-12T14:51:56;12.40;99.90
1205;DHT22;592;48.764;9.174;2023-03-12T14:54:24;12.70;99.90
1205;DHT22;592;48.764;9.174;2023-03-12T14:56:52;13.00;99.90
1205;DHT22;592;48.764;9.174;2023-03-12T14:59:25;12.60;99.90
1205;DHT22;592;48.764;9.174;2023-03-12T15:01:58;12.50;99.90
1205;DHT22;592;48.764;9.174;2023-03-12T15:04:26;12.60;99.90
1205;DHT22;592;48.764;9.174;2023-03-12T15:06:54;12.80;99.90
1205;DHT22;592;48.764;9.174;2023-03-12T15:09:25;13.10;99.90
1205;DHT22;592;48.764;9.174;2023-03-12T15:11:54;13.50;99.90
1205;DHT22;592;48.764;9.174;2023-03-12T15:14:22;13.30;99.90
1205;DHT22;592;48.764;9.174;2023-03-12T15:16:50;13.40;99.90
1205;DHT22;592;48.764;9.174;2023-03-12T15:19:22;13.40;99.90
1205;DHT22;592;48.764;9.174;2023-03-12T15:21:49;13.00;99.90
1205;DHT22;592;48.764;9.174;2023-03-12T15:24:16;12.80;99.90
1205;DHT22;592;48.764;9.174;2023-03-12T15:26:44;12.70;99.90
1205;DHT22;592;48.764;9.174;2023-03-12T15:29:19;12.60;99.90
1205;DHT22;592;48.764;9.174;2023-03-12T15:31:51;12.40;99.90
1205;DHT22;592;48.764;9.174;2023-03-12T15:34:32;12.30;99.90
1205;DHT22;592;48.764;9.174;2023-03-12T15:37:01;12.30;99.90
1205;DHT22;592;48.764;9.174;2023-03-12T15:39:30;12.10;99.90
1205;DHT22;592;48.764;9.174;2023-03-12T15:42:00;12.20;99.90
1205;DHT22;592;48.764;9.174;2023-03-12T15:44:30;12.20;99.90
1205;DHT22;592;48.764;9.174;2023-03-12T15:47:05;12.20;99.90
1205;DHT22;592;48.764;9.174;2023-03-12T15:49:35;12.20;99.90
1205;DHT22;592;48.764;9.174;2023-03-12T15:52:11;12.20;99.90
1205;DHT22;592;48.764;9.174;2023-03-12T15:55:00;12.00;99.90
1205;DHT22;592;48.764;9.174;2023-03-12T15:57:27;11.90;99.90
1205;DHT22;592;48.764;9.174;2023-03-12T16:00:15;11.80;99.90
1205;DHT22;592;48.764;9.174;2023-03-12T16:02:48;11.90;99.90
1205;DHT22;592;48.764;9.174;2023-03-12T16:05:17;11.70;99.90
1205;DHT22;592;48.764;9.174;2023-03-12T16:07:43;11.70;99.90
1205;DHT22;592;48.764;9.174;2023-03-12T16:10:13;11.70;99.90
1205;DHT22;592;48.764;9.174;2023-03-12T16:12:40;11.60;99.90
1205;DHT22;592;48.764;9.174;2023-03-12T16:15:12;11.70;99.90
1205;DHT22;592;48.764;9.174;2023-03-12T16:17:39;11.60;99.90
1205;DHT22;592;48.764;9.174;2023-03-12T16:20:10;11.60;99.90
1205;DHT22;592;48.764;9.174;2023-03-12T16:22:38;11.70;99.90
1205;DHT22;592;48.764;9.174;2023-03-12T16:25:06;11.70;99.90
1205;DHT22;592;48.764;9.174;2023-03-12T16:27:32;11.70;99.90
1205;DHT22;592;48.764;9.174;2023-03-12T16:30:05;11.70;99.90
1205;DHT22;592;48.764;9.174;2023-03-12T16:32:32;11.60;99.90
1205;DHT22;592;48.764;9.174;2023-03-12T16:34:58;11.50;99.90
1205;DHT22;592;48.764;9.174;2023-03-12T16:37:25;11.50;99.90
1205;DHT22;592;48.764;9.174;2023-03-12T16:39:53;11.50;99.90
1205;DHT22;592;48.764;9.174;2023-03-12T16:42:20;11.40;99.90
1205;DHT22;592;48.764;9.174;2023-03-12T16:44:47;11.40;99.90
1205;DHT22;592;48.764;9.174;2023-03-12T16:47:14;11.40;99.90
1205;DHT22;592;48.764;9.174;2023-03-12T16:49:42;11.40;99.90
1205;DHT22;592;48.764;9.174;2023-03-12T16:52:17;11.40;99.90